createdAt,value
2019-04-20T00:01:01.566Z,3.47
2019-04-20T00:03:36.782Z,4.33
2019-04-20T00:05:59.250Z,3.57
2019-04-20T00:08:31.092Z,3.90
2019-04-20T00:11:05.353Z,4.63
2019-04-20T00:13:38.431Z,4.30
2019-04-20T00:15:53.733Z,4.33
2019-04-20T00:18:21.149Z,3.97
2019-04-20T00:20:57.583Z,4.10
2019-04-20T00:23:29.319Z,3.80
2019-04-20T00:26:17.345Z,4.80
2019-04-20T00:28:55.933Z,3.23
2019-04-20T00:31:23.661Z,3.30
2019-04-20T00:33:47.077Z,3.80
2019-04-20T00:36:07.254Z,4.03
2019-04-20T00:38:44.651Z,3.63
2019-04-20T00:41:10.124Z,3.60
2019-04-20T00:43:38.485Z,4.60
2019-04-20T00:46:08.292Z,3.83
2019-04-20T00:48:44.314Z,3.60
2019-04-20T00:51:23.929Z,3.63
2019-04-20T00:53:36.279Z,3.73
2019-04-20T00:55:59.536Z,3.20
2019-04-20T00:58:31.557Z,3.50
2019-04-20T01:01:15.631Z,3.73
2019-04-20T01:03:39.179Z,3.90
2019-04-20T01:06:24.998Z,4.17
2019-04-20T01:08:36.025Z,5.07
2019-04-20T01:11:04.233Z,4.70
2019-04-20T01:13:31.806Z,4.00
2019-04-20T01:16:07.635Z,4.30
2019-04-20T01:18:28.093Z,5.07
2019-04-20T01:21:00.254Z,4.20
2019-04-20T01:23:31.224Z,4.47
2019-04-20T01:26:01.246Z,4.67
2019-04-20T01:28:37.486Z,4.03
2019-04-20T01:31:05.277Z,4.80
2019-04-20T01:33:34.402Z,4.90
2019-04-20T01:36:02.804Z,4.30
2019-04-20T01:38:35.958Z,5.10
2019-04-20T01:40:48.402Z,3.50
2019-04-20T01:43:16.322Z,3.87
2019-04-20T01:45:44.453Z,3.10
2019-04-20T01:48:15.125Z,3.93
2019-04-20T01:50:49.886Z,3.47
2019-04-20T01:53:24.424Z,3.33
2019-04-20T01:55:55.718Z,4.00
2019-04-20T02:00:44.946Z,3.00
2019-04-20T02:03:36.951Z,3.00
2019-04-20T02:06:16.743Z,3.67
2019-04-20T02:08:42.168Z,3.40
2019-04-20T02:11:17.429Z,3.43
2019-04-20T02:13:44.387Z,3.30
2019-04-20T02:16:16.533Z,3.60
2019-04-20T02:18:57.989Z,3.93
2019-04-20T02:21:25.922Z,3.77
2019-04-20T02:23:45.814Z,4.10
2019-04-20T02:26:05.017Z,4.83
2019-04-20T02:29:00.496Z,5.00
2019-04-20T02:31:47.457Z,4.40
2019-04-20T02:34:04.022Z,3.80
2019-04-20T02:36:51.496Z,3.45
2019-04-20T02:39:21.125Z,3.92
2019-04-20T02:41:44.872Z,4.33
2019-04-20T02:44:16.065Z,4.00
2019-04-20T02:46:33.458Z,5.53
2019-04-20T02:49:10.243Z,5.20
2019-04-20T02:51:33.102Z,6.13
2019-04-20T02:54:11.131Z,5.63
2019-04-20T02:56:32.592Z,5.70
2019-04-20T02:59:04.890Z,6.45
2019-04-20T03:01:22.175Z,6.25
2019-04-20T03:03:36.510Z,4.55
2019-04-20T03:06:08.668Z,5.00
2019-04-20T03:08:52.628Z,4.95
2019-04-20T03:11:22.517Z,5.20
2019-04-20T03:13:42.958Z,4.80
2019-04-20T03:16:11.051Z,4.70
2019-04-20T03:18:42.399Z,5.03
2019-04-20T03:21:13.985Z,4.20
2019-04-20T03:23:50.023Z,4.87
2019-04-20T03:26:17.214Z,8.15
2019-04-20T03:28:56.692Z,9.00
2019-04-20T03:32:15.065Z,8.35
2019-04-20T03:34:55.364Z,11.68
2019-04-20T03:36:55.995Z,9.23
2019-04-20T03:39:15.085Z,8.98
2019-04-20T03:41:34.513Z,8.53
2019-04-20T03:44:00.907Z,6.97
2019-04-20T03:46:31.081Z,5.30
2019-04-20T03:49:07.155Z,5.28
2019-04-20T03:51:40.111Z,5.05
2019-04-20T03:54:24.377Z,5.78
2019-04-20T03:57:13.938Z,3.72
2019-04-20T03:59:48.450Z,4.15
2019-04-20T04:02:29.839Z,4.35
2019-04-20T04:04:59.329Z,3.70
2019-04-20T04:07:19.467Z,4.72
2019-04-20T04:10:00.786Z,4.25
2019-04-20T04:12:34.765Z,4.65
2019-04-20T04:14:57.824Z,5.22
2019-04-20T04:17:31.651Z,4.67
2019-04-20T04:20:01.655Z,3.65
2019-04-20T04:22:40.044Z,4.20
2019-04-20T04:25:03.732Z,4.70
2019-04-20T04:27:40.663Z,4.40
2019-04-20T04:30:08.121Z,4.22
2019-04-20T04:32:58.831Z,4.28
2019-04-20T04:35:01.654Z,4.25
2019-04-20T04:37:37.591Z,4.12
2019-04-20T04:40:16.225Z,4.53
2019-04-20T04:42:34.185Z,4.28
2019-04-20T04:44:53.563Z,4.28
2019-04-20T04:47:14.867Z,4.40
2019-04-20T04:49:44.428Z,5.00
2019-04-20T04:52:15.494Z,4.97
2019-04-20T04:54:49.643Z,4.08
2019-04-20T04:57:09.465Z,4.05
2019-04-20T04:59:38.357Z,4.03
2019-04-20T05:02:05.743Z,4.35
2019-04-20T05:05:10.134Z,4.30
2019-04-20T05:07:38.752Z,4.03
2019-04-20T05:09:55.351Z,4.83
2019-04-20T05:12:26.302Z,4.40
2019-04-20T05:15:03.546Z,4.15
2019-04-20T05:17:40.859Z,4.25
2019-04-20T05:20:12.089Z,4.33
2019-04-20T05:22:49.692Z,5.10
2019-04-20T05:25:33.579Z,4.67
2019-04-20T05:28:16.808Z,4.20
2019-04-20T05:30:42.700Z,3.50
2019-04-20T05:33:08.392Z,4.03
2019-04-20T05:35:58.901Z,3.87
2019-04-20T05:38:28.365Z,3.90
2019-04-20T05:40:54.415Z,4.28
2019-04-20T05:43:20.590Z,4.37
2019-04-20T05:45:45.373Z,4.72
2019-04-20T05:48:18.175Z,4.08
2019-04-20T05:50:48.445Z,4.28
2019-04-20T05:53:20.288Z,3.95
2019-04-20T05:55:49.920Z,4.15
2019-04-20T05:58:24.596Z,4.25
2019-04-20T06:00:48.115Z,4.62
2019-04-20T06:03:15.247Z,5.22
2019-04-20T06:05:53.140Z,4.72
2019-04-20T06:08:20.552Z,5.50
2019-04-20T06:10:45.234Z,4.33
2019-04-20T06:13:22.862Z,5.47
2019-04-20T06:15:59.818Z,4.28
2019-04-20T06:18:28.428Z,4.62
2019-04-20T06:21:02.327Z,5.10
2019-04-20T06:23:39.933Z,5.17
2019-04-20T06:26:20.675Z,5.03
2019-04-20T06:28:32.253Z,4.30
2019-04-20T06:30:56.860Z,5.10
2019-04-20T06:34:20.743Z,5.50
2019-04-20T06:36:29.320Z,7.03
2019-04-20T06:38:56.055Z,5.47
2019-04-20T06:41:21.260Z,5.50
2019-04-20T06:43:54.185Z,4.60
2019-04-20T06:46:18.784Z,4.67
2019-04-20T06:48:45.902Z,4.53
2019-04-20T06:51:23.393Z,4.70
2019-04-20T06:53:52.758Z,4.77
2019-04-20T06:56:41.775Z,3.97
2019-04-20T06:59:21.467Z,4.07
2019-04-20T07:01:48.997Z,4.80
2019-04-20T07:04:37.599Z,4.60
2019-04-20T07:09:19.923Z,4.60
2019-04-20T07:11:37.430Z,4.90
2019-04-20T07:13:55.666Z,5.47
2019-04-20T07:16:35.831Z,5.37
2019-04-20T07:19:07.837Z,4.60
2019-04-20T07:22:13.485Z,5.10
2019-04-20T07:24:42.875Z,4.77
2019-04-20T07:27:01.724Z,4.77
2019-04-20T07:29:36.778Z,4.60
2019-04-20T07:31:54.001Z,6.07
2019-04-20T07:34:26.573Z,4.80
2019-04-20T07:37:18.082Z,5.10
2019-04-20T07:39:31.591Z,5.00
2019-04-20T07:42:00.693Z,5.80
2019-04-20T07:44:35.717Z,5.00
2019-04-20T07:47:01.626Z,4.87
2019-04-20T07:49:24.689Z,6.03
2019-04-20T07:51:37.574Z,5.70
2019-04-20T07:54:28.529Z,6.07
2019-04-20T07:56:47.613Z,6.00
2019-04-20T07:59:14.251Z,5.77
2019-04-20T08:04:22.387Z,5.90
2019-04-20T08:06:45.934Z,5.40
2019-04-20T08:09:24.353Z,6.37
2019-04-20T08:12:02.946Z,6.20
2019-04-20T08:14:30.246Z,6.20
2019-04-20T08:17:14.070Z,5.63
2019-04-20T08:19:23.457Z,6.13
2019-04-20T08:21:52.413Z,6.23
2019-04-20T08:24:21.409Z,5.97
2019-04-20T08:26:41.574Z,5.90
2019-04-20T08:29:20.565Z,6.23
2019-04-20T08:32:10.064Z,5.70
2019-04-20T08:34:47.522Z,6.33
2019-04-20T08:37:06.110Z,5.50
2019-04-20T08:42:14.165Z,5.27
2019-04-20T08:44:53.739Z,6.03
2019-04-20T08:47:35.212Z,5.40
2019-04-20T08:49:41.318Z,4.70
2019-04-20T08:52:47.018Z,4.30
2019-04-20T08:54:31.238Z,5.40
2019-04-20T08:56:51.510Z,4.70
2019-04-20T08:59:13.803Z,5.20
2019-04-20T09:01:42.651Z,5.07
2019-04-20T09:04:16.298Z,5.30
2019-04-20T09:06:52.253Z,4.33
2019-04-20T09:09:37.778Z,5.07
2019-04-20T09:12:05.260Z,5.03
2019-04-20T09:14:21.400Z,4.60
2019-04-20T09:16:57.068Z,5.33
2019-04-20T09:19:30.851Z,6.70
2019-04-20T09:21:55.183Z,4.20
2019-04-20T09:24:48.458Z,4.93
2019-04-20T09:27:05.972Z,4.73
2019-04-20T09:29:35.838Z,5.60
2019-04-20T09:32:08.090Z,4.77
2019-04-20T09:34:41.782Z,5.50
2019-04-20T09:37:21.961Z,4.90
2019-04-20T09:39:32.641Z,5.10
2019-04-20T09:42:14.412Z,4.40
2019-04-20T09:44:46.194Z,4.53
2019-04-20T09:47:12.010Z,6.97
2019-04-20T09:49:51.968Z,5.13
2019-04-20T09:52:25.437Z,5.60
2019-04-20T09:54:58.030Z,4.43
2019-04-20T09:57:25.445Z,6.13
2019-04-20T09:59:53.644Z,5.53
2019-04-20T10:02:10.290Z,5.63
2019-04-20T10:04:33.467Z,5.23
2019-04-20T10:07:07.945Z,5.67
2019-04-20T10:09:34.443Z,5.20
2019-04-20T10:11:59.693Z,6.10
2019-04-20T10:14:27.016Z,4.67
2019-04-20T10:16:54.302Z,5.07
2019-04-20T10:19:26.572Z,4.77
2019-04-20T10:21:50.698Z,6.10
2019-04-20T10:24:18.868Z,5.20
2019-04-20T10:26:46.267Z,4.90
2019-04-20T10:29:13.487Z,4.80
2019-04-20T10:31:47.934Z,5.33
2019-04-20T10:34:09.647Z,5.53
2019-04-20T10:36:39.611Z,4.63
2019-04-20T10:39:08.743Z,5.40
2019-04-20T10:41:45.281Z,4.63
2019-04-20T10:44:04.998Z,3.60
2019-04-20T10:46:33.274Z,4.30
2019-04-20T10:49:03.809Z,4.07
2019-04-20T10:51:29.587Z,3.83
2019-04-20T10:53:58.240Z,4.50
2019-04-20T10:56:25.621Z,3.87
2019-04-20T10:58:53.811Z,4.50
2019-04-20T11:01:21.899Z,4.30
2019-04-20T11:03:50.332Z,4.00
2019-04-20T11:06:18.618Z,3.90
2019-04-20T11:08:46.644Z,4.60
2019-04-20T11:11:22.487Z,3.57
2019-04-20T11:13:43.454Z,3.13
2019-04-20T11:16:10.827Z,4.30
2019-04-20T11:18:38.155Z,4.20
2019-04-20T11:21:05.411Z,3.33
2019-04-20T11:23:34.023Z,3.70
2019-04-20T11:26:02.228Z,3.67
2019-04-20T11:28:30.342Z,3.37
2019-04-20T11:30:58.508Z,3.30
2019-04-20T11:33:25.919Z,3.63
2019-04-20T11:35:53.140Z,4.17
2019-04-20T11:38:20.389Z,4.00
2019-04-20T11:41:01.426Z,3.13
2019-04-20T11:43:18.010Z,3.43
2019-04-20T11:45:46.755Z,3.60
2019-04-20T11:48:14.050Z,3.47
2019-04-20T11:50:41.744Z,3.83
2019-04-20T11:53:09.127Z,3.70
2019-04-20T11:55:36.448Z,3.83
2019-04-20T11:58:03.771Z,3.97
2019-04-20T12:00:46.924Z,3.63
2019-04-20T12:03:16.315Z,3.60
2019-04-20T12:05:44.456Z,3.60
2019-04-20T12:08:09.232Z,3.60
2019-04-20T12:10:37.212Z,4.10
2019-04-20T12:13:05.864Z,3.63
2019-04-20T12:15:35.643Z,3.90
2019-04-20T12:18:02.447Z,3.70
2019-04-20T12:20:29.656Z,3.47
2019-04-20T12:22:58.126Z,3.67
2019-04-20T12:25:25.962Z,4.00
2019-04-20T12:27:57.026Z,3.00
2019-04-20T12:30:23.798Z,3.10
2019-04-20T12:32:55.307Z,3.03
2019-04-20T12:35:20.407Z,3.40
2019-04-20T12:37:47.627Z,2.97
2019-04-20T12:40:17.372Z,3.80
2019-04-20T12:42:44.691Z,2.80
2019-04-20T12:45:13.538Z,3.43
2019-04-20T12:47:41.698Z,3.97
2019-04-20T12:50:09.966Z,3.20
2019-04-20T12:52:38.474Z,3.57
2019-04-20T12:55:10.509Z,3.27
2019-04-20T12:57:38.623Z,3.43
2019-04-20T13:00:07.681Z,3.57
2019-04-20T13:02:35.497Z,3.50
2019-04-20T13:05:03.640Z,3.50
2019-04-20T13:07:38.076Z,3.57
2019-04-20T13:10:02.274Z,3.80
2019-04-20T13:12:47.786Z,3.30
2019-04-20T13:15:24.536Z,3.80
2019-04-20T13:17:52.876Z,3.70
2019-04-20T13:20:21.683Z,4.13
2019-04-20T13:22:48.995Z,3.80
2019-04-20T13:25:16.970Z,3.40
2019-04-20T13:27:45.044Z,3.23
2019-04-20T13:30:13.274Z,2.97
2019-04-20T13:32:41.619Z,3.83
2019-04-20T13:35:10.089Z,3.17
2019-04-20T13:37:39.967Z,2.97
2019-04-20T13:40:07.063Z,3.57
2019-04-20T13:42:35.199Z,2.80
2019-04-20T13:45:04.474Z,3.30
2019-04-20T13:47:32.750Z,2.80
2019-04-20T13:50:01.097Z,4.23
2019-04-20T13:52:28.872Z,2.40
2019-04-20T13:54:56.292Z,3.00
2019-04-20T13:57:42.046Z,2.97
2019-04-20T14:00:17.896Z,3.37
2019-04-20T14:02:50.664Z,3.53
2019-04-20T14:05:20.362Z,3.37
2019-04-20T14:07:47.630Z,3.80
2019-04-20T14:10:15.460Z,3.80
2019-04-20T14:12:53.362Z,3.30
2019-04-20T14:15:13.143Z,2.93
2019-04-20T14:17:41.399Z,2.97
2019-04-20T14:20:13.210Z,3.10
2019-04-20T14:22:38.882Z,2.93
2019-04-20T14:25:07.004Z,3.73
2019-04-20T14:27:34.946Z,3.50
2019-04-20T14:30:03.467Z,2.30
2019-04-20T14:32:30.859Z,2.70
2019-04-20T14:34:58.775Z,2.87
2019-04-20T14:37:26.783Z,3.43
2019-04-20T14:39:54.488Z,2.80
2019-04-20T14:42:32.836Z,2.60
2019-04-20T14:44:52.062Z,3.73
2019-04-20T14:47:19.439Z,3.30
2019-04-20T14:49:46.658Z,3.20
2019-04-20T14:52:13.871Z,3.23
2019-04-20T14:54:41.458Z,2.70
2019-04-20T14:57:09.650Z,3.03
2019-04-20T14:59:38.726Z,2.63
2019-04-20T15:02:13.299Z,3.17
2019-04-20T15:04:41.273Z,3.20
2019-04-20T15:07:08.801Z,2.57
2019-04-20T15:09:38.720Z,2.90
2019-04-20T15:12:05.022Z,3.20
2019-04-20T15:14:32.436Z,3.10
2019-04-20T15:17:00.625Z,2.90
2019-04-20T15:19:35.813Z,3.13
2019-04-20T15:22:21.178Z,2.77
2019-04-20T15:24:49.424Z,2.80
2019-04-20T15:27:16.802Z,3.00
2019-04-20T15:29:44.214Z,2.97
2019-04-20T15:32:11.416Z,3.20
2019-04-20T15:34:39.182Z,3.00
2019-04-20T15:37:07.835Z,2.67
2019-04-20T15:39:35.111Z,2.70
2019-04-20T15:42:03.338Z,2.63
2019-04-20T15:44:31.422Z,2.67
2019-04-20T15:46:59.414Z,2.50
2019-04-20T15:49:28.372Z,2.60
2019-04-20T15:51:55.791Z,3.00
2019-04-20T15:54:23.291Z,3.57
2019-04-20T15:56:56.982Z,2.63
2019-04-20T15:59:20.075Z,3.13
2019-04-20T16:01:49.298Z,2.77
2019-04-20T16:04:39.067Z,3.10
2019-04-20T16:07:05.457Z,3.20
2019-04-20T16:09:33.674Z,2.90
2019-04-20T16:12:01.012Z,2.57
2019-04-20T16:14:28.235Z,3.40
2019-04-20T16:16:56.250Z,3.27
2019-04-20T16:19:37.593Z,3.20
2019-04-20T16:21:53.908Z,3.23
2019-04-20T16:24:24.617Z,2.83
2019-04-20T16:26:53.748Z,3.67
2019-04-20T16:29:21.816Z,2.63
2019-04-20T16:31:50.751Z,2.47
2019-04-20T16:34:19.245Z,3.00
2019-04-20T16:36:46.723Z,3.23
2019-04-20T16:39:14.444Z,3.50
2019-04-20T16:41:42.407Z,2.83
2019-04-20T16:44:11.312Z,2.50
2019-04-20T16:46:38.770Z,4.27
2019-04-20T16:49:07.262Z,2.70
2019-04-20T16:51:34.959Z,3.43
2019-04-20T16:54:03.612Z,2.87
2019-04-20T16:56:31.147Z,2.67
2019-04-20T16:59:05.457Z,2.80
2019-04-20T17:01:27.620Z,2.60
2019-04-20T17:04:06.540Z,3.00
2019-04-20T17:06:24.321Z,2.50
2019-04-20T17:08:51.592Z,2.67
2019-04-20T17:11:18.866Z,2.60
2019-04-20T17:13:50.069Z,2.73
2019-04-20T17:16:15.588Z,3.73
2019-04-20T17:18:45.574Z,3.17
2019-04-20T17:21:16.614Z,3.20
2019-04-20T17:23:43.902Z,2.70
2019-04-20T17:26:12.727Z,3.23
2019-04-20T17:28:55.534Z,2.37
2019-04-20T17:31:27.199Z,3.53
2019-04-20T17:34:04.691Z,3.17
2019-04-20T17:36:29.874Z,2.83
2019-04-20T17:38:57.620Z,3.40
2019-04-20T17:41:44.535Z,3.03
2019-04-20T17:44:11.705Z,3.27
2019-04-20T17:46:37.160Z,3.00
2019-04-20T17:49:09.351Z,3.20
2019-04-20T17:51:46.055Z,3.90
2019-04-20T17:54:10.463Z,3.13
2019-04-20T17:56:38.421Z,3.17
2019-04-20T17:59:06.209Z,2.37
2019-04-20T18:01:54.003Z,3.60
2019-04-20T18:04:42.995Z,2.53
2019-04-20T18:06:52.644Z,3.07
2019-04-20T18:09:37.181Z,2.93
2019-04-20T18:11:43.775Z,2.50
2019-04-20T18:14:24.279Z,3.20
2019-04-20T18:16:52.389Z,2.27
2019-04-20T18:19:19.031Z,3.43
2019-04-20T18:21:43.431Z,3.03
2019-04-20T18:24:24.255Z,3.50
2019-04-20T18:26:59.664Z,2.90
2019-04-20T18:29:25.697Z,2.63
2019-04-20T18:31:39.646Z,3.17
2019-04-20T18:34:14.529Z,3.10
2019-04-20T18:36:42.857Z,3.10
2019-04-20T18:39:10.481Z,2.90
2019-04-20T18:41:41.571Z,2.80
2019-04-20T18:44:06.404Z,3.07
2019-04-20T18:46:55.161Z,3.60
2019-04-20T18:49:18.161Z,2.90
2019-04-20T18:51:31.748Z,3.40
2019-04-20T18:54:05.534Z,3.80
2019-04-20T18:56:33.013Z,3.70
2019-04-20T18:58:56.994Z,3.80
2019-04-20T19:01:30.177Z,3.10
2019-04-20T19:03:54.034Z,4.53
2019-04-20T19:06:21.392Z,3.70
2019-04-20T19:08:51.833Z,4.50
2019-04-20T19:11:21.270Z,4.43
2019-04-20T19:13:51.302Z,3.53
2019-04-20T19:16:30.717Z,4.27
2019-04-20T19:19:04.164Z,3.87
2019-04-20T19:21:19.871Z,5.40
2019-04-20T19:23:56.145Z,4.57
2019-04-20T19:26:21.088Z,4.20
2019-04-20T19:28:52.495Z,4.60
2019-04-20T19:31:31.733Z,4.50
2019-04-20T19:34:02.173Z,5.10
2019-04-20T19:36:24.045Z,5.73
2019-04-20T19:38:52.334Z,6.23
2019-04-20T19:41:26.380Z,6.73
2019-04-20T19:43:48.568Z,6.00
2019-04-20T19:46:39.342Z,6.03
2019-04-20T19:48:51.283Z,5.53
2019-04-20T19:51:29.528Z,5.13
2019-04-20T19:53:56.326Z,6.60
2019-04-20T19:56:16.697Z,6.13
2019-04-20T19:58:47.227Z,4.90
2019-04-20T20:01:03.622Z,4.90
2019-04-20T20:03:33.250Z,4.37
2019-04-20T20:06:01.399Z,4.83
2019-04-20T20:08:32.674Z,4.40
2019-04-20T20:11:01.175Z,4.00
2019-04-20T20:13:36.187Z,4.70
2019-04-20T20:16:04.577Z,4.30
2019-04-20T20:18:40.946Z,4.40
2019-04-20T20:21:07.519Z,4.17
2019-04-20T20:23:23.791Z,4.70
2019-04-20T20:25:51.474Z,3.47
2019-04-20T20:28:32.240Z,4.67
2019-04-20T20:31:03.453Z,3.87
2019-04-20T20:33:36.353Z,4.03
2019-04-20T20:35:57.113Z,3.40
2019-04-20T20:38:22.553Z,4.40
2019-04-20T20:40:54.611Z,5.30
2019-04-20T20:43:23.115Z,5.20
2019-04-20T20:45:56.437Z,4.80
2019-04-20T20:48:28.542Z,4.90
2019-04-20T20:50:57.249Z,4.87
2019-04-20T20:53:16.725Z,5.20
2019-04-20T20:55:44.339Z,6.43
2019-04-20T20:58:14.833Z,5.03
2019-04-20T21:00:48.438Z,4.80
2019-04-20T21:03:10.677Z,4.13
2019-04-20T21:05:35.722Z,3.77
2019-04-20T21:08:03.790Z,4.73
2019-04-20T21:10:37.536Z,4.67
2019-04-20T21:13:04.789Z,3.97
2019-04-20T21:15:30.257Z,3.70
2019-04-20T21:18:24.846Z,4.03
2019-04-20T21:20:49.102Z,4.57
2019-04-20T21:23:14.183Z,4.33
2019-04-20T21:25:34.570Z,4.43
2019-04-20T21:27:58.470Z,4.70
2019-04-20T21:30:33.119Z,4.17
2019-04-20T21:32:59.098Z,4.60
2019-04-20T21:35:23.940Z,4.80
2019-04-20T21:37:58.902Z,4.47
2019-04-20T21:40:27.870Z,3.90
2019-04-20T21:42:55.303Z,4.47
2019-04-20T21:45:24.865Z,4.13
2019-04-20T21:47:48.305Z,4.40
2019-04-20T21:50:29.978Z,4.40
2019-04-20T21:52:49.747Z,3.83
2019-04-20T21:55:14.166Z,5.10
2019-04-20T21:57:48.664Z,4.43
2019-04-20T22:00:21.676Z,4.20
2019-04-20T22:02:48.381Z,3.90
2019-04-20T22:05:11.510Z,4.70
2019-04-20T22:07:38.851Z,4.13
2019-04-20T22:10:07.070Z,4.23
2019-04-20T22:12:40.947Z,4.00
2019-04-20T22:15:15.314Z,4.10
2019-04-20T22:17:36.028Z,4.30
2019-04-20T22:20:15.578Z,4.80
2019-04-20T22:22:47.063Z,4.20
2019-04-20T22:25:16.362Z,4.30
2019-04-20T22:27:34.337Z,3.83
2019-04-20T22:29:59.967Z,4.37
2019-04-20T22:32:28.123Z,5.17
2019-04-20T22:35:01.525Z,4.20
2019-04-20T22:37:28.722Z,4.93
2019-04-20T22:39:57.693Z,3.60
2019-04-20T22:42:23.954Z,4.00
2019-04-20T22:44:56.584Z,4.50
2019-04-20T22:47:25.334Z,3.93
2019-04-20T22:50:11.921Z,4.00
2019-04-20T22:52:39.742Z,4.77
2019-04-20T22:55:10.008Z,3.70
2019-04-20T22:57:31.905Z,4.63
2019-04-20T22:59:53.875Z,4.50
2019-04-20T23:02:16.277Z,4.40
2019-04-20T23:04:42.834Z,5.30
2019-04-20T23:07:10.718Z,5.23
2019-04-20T23:09:45.246Z,5.90
2019-04-20T23:12:13.341Z,4.53
2019-04-20T23:14:36.423Z,6.50
2019-04-20T23:17:06.423Z,4.80
2019-04-20T23:19:41.571Z,5.40
2019-04-20T23:22:05.320Z,5.20
2019-04-20T23:24:31.575Z,5.03
2019-04-20T23:26:59.451Z,4.90
2019-04-20T23:29:31.433Z,5.70
2019-04-20T23:32:01.424Z,5.27
2019-04-20T23:34:28.469Z,5.50
2019-04-20T23:36:54.813Z,5.53
2019-04-20T23:39:24.709Z,5.73
2019-04-20T23:41:57.120Z,5.60
2019-04-20T23:44:35.559Z,5.53
2019-04-20T23:47:19.827Z,5.03
2019-04-20T23:50:03.356Z,4.83
2019-04-20T23:52:38.978Z,5.43
2019-04-20T23:54:51.357Z,5.60
2019-04-20T23:57:14.022Z,5.07
2019-04-20T23:59:44.446Z,4.73
